Time;durP1;ratioP1;P1;durP2;ratioP2;P2;SDS_P1;SDS_P2;PMS_P1;PMS_P2;Temp;Humidity;BMP_temperature;BMP_pressure;BME280_temperature;BME280_humidity;BME280_pressure;Samples;Min_cycle;Max_cycle;Signal;HPM_P1;HPM_P2
2021/12/17 00:00:18;;;;;;;17.13;11.45;;;5.50;99.90;;;;;;7375767;19;20602;-73
2021/12/17 00:05:54;;;;;;;19.25;12.80;;;5.50;99.90;;;;;;7374304;19;20500;-73
2021/12/17 00:08:25;;;;;;;18.88;11.90;;;5.40;99.90;;;;;;7377347;19;20171;-73
2021/12/17 00:10:56;;;;;;;21.50;13.20;;;5.40;99.90;;;;;;7379089;19;20139;-73
2021/12/17 00:13:31;;;;;;;18.70;12.27;;;5.50;99.90;;;;;;7375700;19;20139;-78
2021/12/17 00:16:01;;;;;;;16.75;11.20;;;5.70;99.90;;;;;;7377546;19;20146;-78
2021/12/17 00:18:44;;;;;;;17.13;10.50;;;5.90;99.90;;;;;;7373192;19;20143;-78
2021/12/17 00:40:22;;;;;;;17.58;11.27;;;6.00;99.90;;;;;;7378025;19;20146;-77
2021/12/17 00:44:19;;;;;;;20.23;12.13;;;6.00;99.90;;;;;;7369194;19;20605;-77
2021/12/17 00:49:36;;;;;;;18.15;12.73;;;5.90;99.90;;;;;;7373655;19;20175;-73
2021/12/17 00:52:05;;;;;;;25.80;13.20;;;5.80;99.90;;;;;;7375437;19;20131;-73
2021/12/17 00:54:40;;;;;;;19.30;12.57;;;5.80;99.90;;;;;;7368713;19;20163;-73
2021/12/17 00:57:19;;;;;;;23.45;15.05;;;5.90;99.90;;;;;;7376776;19;20139;-73
2021/12/17 00:59:53;;;;;;;21.98;12.18;;;5.80;99.90;;;;;;7372561;19;20147;-73
2021/12/17 01:02:24;;;;;;;20.13;12.13;;;5.90;99.90;;;;;;7374552;19;20132;-74
2021/12/17 01:04:55;;;;;;;22.30;13.50;;;6.00;99.90;;;;;;7373977;19;20124;-73
2021/12/17 01:07:27;;;;;;;16.70;10.90;;;6.20;99.90;;;;;;7373019;19;20143;-73
2021/12/17 01:10:00;;;;;;;18.23;10.88;;;6.30;99.90;;;;;;7375758;19;20444;-73
2021/12/17 01:12:38;;;;;;;18.45;11.05;;;6.40;99.90;;;;;;7372096;19;20147;-73
2021/12/17 01:15:28;;;;;;;19.95;12.20;;;6.30;99.90;;;;;;7373570;19;20147;-73
2021/12/17 01:18:17;;;;;;;15.10;11.13;;;6.30;99.90;;;;;;7376733;19;20196;-73
2021/12/17 01:21:27;;;;;;;16.90;11.02;;;6.40;99.90;;;;;;7358988;19;20199;-73
2021/12/17 01:36:02;;;;;;;15.43;10.70;;;6.70;99.90;;;;;;7371439;19;20703;-73
2021/12/17 01:44:09;;;;;;;17.80;12.48;;;6.60;99.90;;;;;;7379139;19;20547;-73
2021/12/17 01:46:40;;;;;;;18.90;12.38;;;6.50;99.90;;;;;;7384864;19;20182;-73
2021/12/17 01:59:59;;;;;;;17.63;12.35;;;6.10;99.90;;;;;;7379355;19;20155;-73
2021/12/17 02:02:28;;;;;;;23.17;14.73;;;6.00;99.90;;;;;;7377625;19;20668;-73
2021/12/17 02:04:56;;;;;;;22.98;13.30;;;5.90;99.90;;;;;;7377453;19;20160;-73
2021/12/17 02:07:24;;;;;;;22.08;12.65;;;5.80;99.90;;;;;;7372148;19;20906;-73
2021/12/17 02:29:24;;;;;;;16.98;12.40;;;6.50;99.90;;;;;;7374961;19;20418;-78
2021/12/17 02:31:56;;;;;;;16.52;10.40;;;6.60;99.90;;;;;;7379101;19;20626;-78
2021/12/17 02:37:16;;;;;;;20.58;13.70;;;6.70;99.90;;;;;;7377558;19;20139;-77
2021/12/17 02:42:25;;;;;;;19.35;12.23;;;6.60;99.90;;;;;;7378532;19;20598;-78
2021/12/17 02:45:49;;;;;;;16.27;11.52;;;6.60;99.90;;;;;;7372926;19;20153;-78
2021/12/17 02:48:22;;;;;;;17.00;12.90;;;6.60;99.90;;;;;;7380211;19;20128;-77
2021/12/17 02:50:53;;;;;;;22.13;12.50;;;6.70;99.90;;;;;;7379999;19;20163;-78
2021/12/17 02:53:21;;;;;;;17.08;12.05;;;6.60;99.90;;;;;;7378419;19;20127;-77
2021/12/17 02:56:04;;;;;;;21.35;13.27;;;6.70;99.90;;;;;;7359917;19;20207;-77
2021/12/17 02:58:40;;;;;;;19.30;13.00;;;6.70;99.90;;;;;;7377732;19;20136;-78
2021/12/17 03:01:11;;;;;;;16.98;12.30;;;6.60;99.90;;;;;;7370786;19;20493;-77
2021/12/17 03:03:43;;;;;;;18.13;11.32;;;6.70;99.90;;;;;;7378001;19;20181;-78
2021/12/17 03:06:10;;;;;;;18.75;11.13;;;6.70;99.90;;;;;;7376453;19;20143;-78
2021/12/17 03:08:42;;;;;;;16.10;12.52;;;6.70;99.90;;;;;;7377924;19;20167;-78
2021/12/17 03:11:10;;;;;;;15.98;12.30;;;6.80;99.90;;;;;;7376730;19;20135;-78
2021/12/17 03:13:40;;;;;;;20.25;13.30;;;6.90;99.90;;;;;;7377184;19;20528;-78
2021/12/17 03:16:26;;;;;;;19.42;11.98;;;6.80;99.90;;;;;;7375210;19;20128;-77
2021/12/17 03:24:18;;;;;;;19.20;12.07;;;6.60;99.90;;;;;;7375867;19;20135;-78
2021/12/17 03:26:51;;;;;;;18.95;12.93;;;6.70;99.90;;;;;;7377238;19;20163;-73
2021/12/17 03:29:23;;;;;;;21.38;13.05;;;6.60;99.90;;;;;;7377891;19;20523;-73
2021/12/17 03:31:55;;;;;;;27.48;13.38;;;6.40;99.90;;;;;;7374105;19;20143;-73
2021/12/17 03:34:21;;;;;;;18.85;14.10;;;6.40;99.90;;;;;;7380216;19;20616;-74
2021/12/17 03:36:57;;;;;;;20.88;13.57;;;6.50;99.90;;;;;;7378211;19;20135;-73
2021/12/17 03:39:27;;;;;;;24.67;13.88;;;6.40;99.90;;;;;;7378101;19;20139;-73
2021/12/17 03:41:56;;;;;;;21.13;13.45;;;6.50;99.90;;;;;;7381051;19;20496;-74
2021/12/17 03:44:32;;;;;;;21.20;12.45;;;6.50;99.90;;;;;;7377942;19;20138;-77
2021/12/17 03:47:14;;;;;;;17.73;12.95;;;6.50;99.90;;;;;;7376490;19;20131;-78
2021/12/17 03:50:01;;;;;;;16.92;11.38;;;6.60;99.90;;;;;;7378426;19;20135;-77
2021/12/17 03:52:27;;;;;;;17.88;12.52;;;6.50;99.90;;;;;;7377863;19;20135;-77
2021/12/17 03:54:54;;;;;;;21.23;14.07;;;6.40;99.90;;;;;;7372789;19;20504;-78
2021/12/17 03:57:21;;;;;;;20.65;12.82;;;6.50;99.90;;;;;;7375095;19;20132;-78
2021/12/17 03:59:56;;;;;;;16.50;11.95;;;6.60;99.90;;;;;;7371950;19;20144;-78
2021/12/17 04:02:30;;;;;;;19.95;12.70;;;6.70;99.90;;;;;;7378048;19;20144;-78
2021/12/17 04:05:01;;;;;;;16.95;11.90;;;6.80;99.90;;;;;;7380693;19;20515;-77
2021/12/17 04:07:34;;;;;;;16.35;11.65;;;6.70;99.90;;;;;;7378527;19;20198;-77
2021/12/17 04:10:25;;;;;;;17.02;11.05;;;6.90;99.90;;;;;;7373604;19;20151;-77
2021/12/17 04:13:14;;;;;;;17.42;10.85;;;7.00;99.90;;;;;;7378912;19;20139;-77
2021/12/17 04:15:53;;;;;;;15.73;10.77;;;7.00;99.90;;;;;;7376228;19;20167;-77
2021/12/17 04:18:20;;;;;;;14.80;10.55;;;7.10;99.90;;;;;;7374375;19;20190;-77
2021/12/17 04:20:49;;;;;;;17.38;13.15;;;7.10;99.90;;;;;;7378437;19;20150;-78
2021/12/17 04:23:21;;;;;;;18.58;12.48;;;7.00;99.90;;;;;;7378902;19;20135;-77
2021/12/17 04:25:51;;;;;;;17.13;12.68;;;7.00;99.90;;;;;;7371950;19;20144;-73
2021/12/17 04:28:23;;;;;;;15.50;11.48;;;7.00;99.90;;;;;;7369616;19;20718;-73
2021/12/17 04:30:50;;;;;;;16.00;10.73;;;7.10;99.90;;;;;;7368618;19;20211;-77
2021/12/17 04:33:17;;;;;;;16.15;11.52;;;7.20;99.90;;;;;;7376533;19;20151;-77
2021/12/17 04:35:48;;;;;;;15.18;11.40;;;7.20;99.90;;;;;;7377071;19;20127;-76
2021/12/17 04:38:16;;;;;;;19.02;11.75;;;7.20;99.90;;;;;;7377563;19;20123;-77
2021/12/17 04:40:46;;;;;;;17.48;11.32;;;7.20;99.90;;;;;;7377931;19;20160;-77
2021/12/17 04:45:57;;;;;;;16.60;12.30;;;7.20;99.90;;;;;;7370670;19;20142;-77
2021/12/17 04:59:32;;;;;;;15.18;11.00;;;7.10;99.90;;;;;;7371979;19;20133;-77
2021/12/17 05:02:03;;;;;;;15.25;12.40;;;7.00;99.90;;;;;;7374858;19;20513;-78
2021/12/17 05:04:37;;;;;;;16.13;11.52;;;6.90;99.90;;;;;;7376685;19;21028;-77
2021/12/17 05:07:06;;;;;;;17.13;12.27;;;7.00;99.90;;;;;;7366533;19;20140;-76
2021/12/17 05:09:52;;;;;;;15.48;11.57;;;6.90;99.90;;;;;;7364660;19;20185;-76
2021/12/17 05:20:48;;;;;;;16.80;10.90;;;6.90;99.90;;;;;;7365578;19;20142;-77
2021/12/17 05:23:26;;;;;;;16.83;10.23;;;6.80;99.90;;;;;;7369105;19;20135;-78
2021/12/17 05:25:55;;;;;;;16.75;11.38;;;6.90;99.90;;;;;;7367544;19;20593;-73
2021/12/17 05:28:26;;;;;;;16.38;10.85;;;6.70;99.90;;;;;;7373884;19;20173;-78
2021/12/17 05:30:56;;;;;;;16.92;11.35;;;6.70;99.90;;;;;;7376286;19;20136;-71
2021/12/17 05:33:29;;;;;;;16.90;12.18;;;6.60;99.90;;;;;;7364990;19;20140;-72
2021/12/17 05:36:21;;;;;;;16.42;11.90;;;6.50;99.90;;;;;;7371493;19;20194;-75
2021/12/17 05:39:04;;;;;;;17.77;10.77;;;6.70;99.90;;;;;;7370777;19;20202;-76
2021/12/17 05:41:33;;;;;;;17.90;11.35;;;6.80;99.90;;;;;;7368634;19;20148;-70
2021/12/17 05:44:21;;;;;;;18.00;12.70;;;6.70;99.90;;;;;;7375923;19;20128;-70
2021/12/17 05:46:50;;;;;;;14.98;11.32;;;6.80;99.90;;;;;;7354020;19;20140;-73
2021/12/17 05:49:25;;;;;;;15.65;11.30;;;6.60;99.90;;;;;;7370932;19;20661;-73
2021/12/17 05:51:55;;;;;;;16.15;11.85;;;6.60;99.90;;;;;;7378708;19;20469;-73
2021/12/17 05:54:25;;;;;;;17.88;12.65;;;6.60;99.90;;;;;;7354876;19;20155;-74
2021/12/17 05:56:54;;;;;;;19.67;11.60;;;6.60;99.90;;;;;;7379805;19;20203;-74
2021/12/17 05:59:22;;;;;;;16.77;11.57;;;6.70;99.90;;;;;;7369844;19;21194;-74
2021/12/17 06:01:49;;;;;;;17.35;12.30;;;6.70;99.90;;;;;;7370023;19;20823;-74
2021/12/17 06:04:17;;;;;;;14.68;11.88;;;6.70;99.90;;;;;;7363896;19;20143;-73
2021/12/17 06:06:56;;;;;;;19.35;10.95;;;6.80;99.90;;;;;;7358596;19;20135;-74
2021/12/17 06:09:29;;;;;;;18.73;12.52;;;6.80;99.90;;;;;;7340743;19;20167;-73
2021/12/17 06:11:58;;;;;;;18.42;12.93;;;6.70;99.90;;;;;;7358100;19;20602;-73
2021/12/17 06:14:24;;;;;;;19.02;11.63;;;6.70;99.90;;;;;;7348173;19;20147;-72
2021/12/17 06:16:53;;;;;;;16.58;11.95;;;6.80;99.90;;;;;;7363101;19;20143;-72
2021/12/17 06:19:33;;;;;;;14.80;11.70;;;6.80;99.90;;;;;;7359533;19;20139;-71
2021/12/17 06:22:02;;;;;;;16.73;10.55;;;6.80;99.90;;;;;;7344253;19;20140;-77
2021/12/17 06:24:31;;;;;;;17.15;11.20;;;6.80;99.90;;;;;;7356290;19;20132;-72
2021/12/17 06:26:59;;;;;;;14.30;10.63;;;6.70;99.90;;;;;;7361789;19;20204;-72
2021/12/17 06:29:25;;;;;;;17.55;12.63;;;6.60;99.90;;;;;;7374506;19;20140;-72
2021/12/17 06:32:02;;;;;;;23.02;14.57;;;6.70;99.90;;;;;;7372868;19;20672;-72
2021/12/17 06:34:31;;;;;;;14.95;11.27;;;6.80;99.90;;;;;;7377346;19;20614;-72
2021/12/17 06:37:04;;;;;;;17.08;12.15;;;6.80;99.90;;;;;;7375613;19;20135;-72
2021/12/17 06:39:32;;;;;;;17.17;13.40;;;7.00;99.90;;;;;;7369287;19;20135;-72
2021/12/17 06:42:01;;;;;;;14.23;10.70;;;7.00;99.90;;;;;;7373537;19;20138;-71
2021/12/17 06:44:28;;;;;;;13.65;10.95;;;7.10;99.90;;;;;;7373630;19;20638;-73
2021/12/17 06:47:05;;;;;;;19.15;11.77;;;7.00;99.90;;;;;;7368185;19;20477;-71
2021/12/17 07:32:40;;;;;;;19.73;13.63;;;7.00;99.90;;;;;;7375194;19;21042;-77
2021/12/17 07:40:29;;;;;;;13.75;9.20;;;7.30;99.90;;;;;;7373808;19;20135;-77
2021/12/17 07:42:56;;;;;;;15.35;8.73;;;7.50;99.90;;;;;;7372395;19;20519;-77
2021/12/17 07:45:45;;;;;;;12.20;8.40;;;7.40;99.90;;;;;;7377426;19;20487;-77
2021/12/17 07:48:23;;;;;;;11.18;7.85;;;7.40;99.90;;;;;;7378156;19;20139;-77
2021/12/17 07:50:57;;;;;;;11.88;7.93;;;7.40;99.90;;;;;;7379726;19;20214;-71
2021/12/17 07:54:01;;;;;;;10.43;8.23;;;7.40;99.90;;;;;;7373852;19;20206;-71
2021/12/17 07:56:37;;;;;;;10.80;7.57;;;7.30;99.90;;;;;;7382357;19;20571;-71
2021/12/17 07:59:12;;;;;;;9.32;7.22;;;7.10;99.90;;;;;;7380006;19;20783;-71
2021/12/17 08:01:43;;;;;;;12.00;7.15;;;7.20;99.90;;;;;;7378347;19;20147;-71
2021/12/17 08:04:11;;;;;;;8.07;6.22;;;7.30;99.90;;;;;;7376815;19;20171;-71
2021/12/17 08:07:00;;;;;;;9.45;6.93;;;7.30;99.90;;;;;;7377647;19;20165;-71
2021/12/17 08:09:35;;;;;;;9.55;7.28;;;7.40;99.90;;;;;;7375408;19;20163;-71
2021/12/17 08:12:07;;;;;;;9.68;6.50;;;7.50;99.90;;;;;;7377254;19;20141;-71
2021/12/17 08:14:55;;;;;;;12.15;7.40;;;7.50;99.90;;;;;;7379120;19;20613;-71
2021/12/17 08:26:07;;;;;;;11.40;7.28;;;7.80;99.90;;;;;;7375334;19;20401;-74
2021/12/17 08:28:23;;;;;;;13.07;7.22;;;7.80;99.90;;;;;;7378353;19;20148;-74
2021/12/17 08:30:55;;;;;;;7.68;6.10;;;7.80;99.90;;;;;;7377494;19;20140;-74
2021/12/17 08:33:25;;;;;;;12.85;6.72;;;7.70;99.90;;;;;;7378596;19;20143;-75
2021/12/17 08:35:57;;;;;;;9.82;7.40;;;7.60;99.90;;;;;;7371976;19;20139;-75
2021/12/17 08:38:33;;;;;;;7.55;6.30;;;7.70;99.90;;;;;;7376677;19;20131;-73
2021/12/17 08:41:03;;;;;;;10.38;6.85;;;7.70;99.90;;;;;;7372660;19;20633;-74
2021/12/17 08:43:33;;;;;;;8.45;7.03;;;7.70;99.90;;;;;;7378005;19;20135;-74
2021/12/17 08:46:05;;;;;;;14.07;6.88;;;7.50;99.90;;;;;;7377634;19;20702;-74
2021/12/17 08:49:07;;;;;;;11.63;7.30;;;7.50;99.90;;;;;;7378631;19;20147;-75
2021/12/17 08:51:41;;;;;;;8.63;5.57;;;7.50;99.90;;;;;;7381372;19;20139;-70
2021/12/17 08:54:09;;;;;;;7.55;5.20;;;7.50;99.90;;;;;;7381757;19;20636;-70
2021/12/17 08:56:47;;;;;;;8.65;6.20;;;7.60;99.90;;;;;;7388588;19;20135;-70
2021/12/17 08:59:21;;;;;;;8.48;5.40;;;8.00;99.90;;;;;;7384907;19;20135;-70
2021/12/17 09:02:06;;;;;;;7.57;5.80;;;9.50;99.90;;;;;;7381599;19;20154;-70
2021/12/17 09:04:39;;;;;;;9.55;7.70;;;11.70;99.90;;;;;;7386531;19;20477;-70
2021/12/17 09:07:08;;;;;;;8.47;5.80;;;;;;;;;;7385385;19;20143;-70
2021/12/17 09:09:35;;;;;;;6.23;4.93;;;;;;;;;;7380538;19;20845;-70
2021/12/17 09:12:14;;;;;;;4.87;4.43;;;;;;;;;;7380599;19;20388;-70
2021/12/17 09:14:45;;;;;;;7.77;5.30;;;13.20;99.90;;;;;;7388641;19;20447;-71
2021/12/17 09:17:46;;;;;;;5.60;5.00;;;;;;;;;;7384908;19;20956;-71
2021/12/17 09:20:19;;;;;;;8.13;5.27;;;15.70;91.90;;;;;;7376603;19;20404;-71
2021/12/17 09:22:46;;;;;;;6.07;4.87;;;;;;;;;;7383942;19;20380;-70
2021/12/17 09:25:19;;;;;;;5.43;4.47;;;16.00;85.80;;;;;;7377687;19;20404;-74
2021/12/17 09:27:55;;;;;;;5.90;4.80;;;;;;;;;;7386503;19;20395;-74
2021/12/17 09:30:53;;;;;;;5.70;5.07;;;;;;;;;;7385275;19;20408;-74
2021/12/17 09:33:25;;;;;;;6.53;4.97;;;;;;;;;;7382318;19;20380;-74
2021/12/17 09:35:54;;;;;;;5.33;4.43;;;;;;;;;;7385718;19;20412;-73
2021/12/17 09:38:22;;;;;;;5.30;4.40;;;12.70;91.60;;;;;;7382187;19;20945;-74
2021/12/17 09:40:49;;;;;;;7.20;5.60;;;9.30;99.90;;;;;;7381905;19;20364;-74
2021/12/17 09:43:16;;;;;;;5.90;4.90;;;9.10;99.90;;;;;;7381996;19;20468;-74
2021/12/17 09:45:47;;;;;;;6.75;5.10;;;8.90;99.90;;;;;;7384741;19;20380;-74
2021/12/17 09:48:14;;;;;;;5.43;4.55;;;8.50;99.90;;;;;;7386376;19;20142;-74
2021/12/17 09:50:44;;;;;;;5.95;5.03;;;8.50;99.90;;;;;;7381587;19;20131;-74
2021/12/17 09:53:12;;;;;;;9.70;5.10;;;8.40;99.90;;;;;;7382487;19;20128;-74
2021/12/17 09:55:39;;;;;;;7.20;5.80;;;8.40;99.90;;;;;;7377134;19;20240;-73
2021/12/17 09:58:07;;;;;;;7.38;5.60;;;8.30;99.90;;;;;;7386283;19;20127;-74
2021/12/17 10:00:38;;;;;;;6.88;5.55;;;8.30;99.90;;;;;;7378521;19;20622;-70
2021/12/17 10:03:10;;;;;;;7.22;5.45;;;8.30;99.90;;;;;;7386342;19;20175;-70
2021/12/17 10:05:38;;;;;;;7.40;5.60;;;8.20;99.90;;;;;;7385492;19;20150;-70
2021/12/17 10:08:11;;;;;;;6.40;5.50;;;8.20;99.90;;;;;;7382598;19;20538;-70
2021/12/17 10:10:40;;;;;;;9.20;6.50;;;8.10;99.90;;;;;;7383227;19;20132;-70
2021/12/17 10:13:23;;;;;;;9.05;7.10;;;8.20;99.90;;;;;;7385375;19;20206;-70
2021/12/17 10:16:01;;;;;;;8.35;6.07;;;8.30;99.90;;;;;;7383248;19;20127;-70
2021/12/17 10:18:41;;;;;;;7.25;5.43;;;8.30;99.90;;;;;;7385880;19;20135;-70
2021/12/17 10:21:09;;;;;;;5.82;4.80;;;8.30;99.90;;;;;;7386243;19;20597;-70
2021/12/17 10:23:41;;;;;;;5.95;4.80;;;8.30;99.90;;;;;;7376038;19;20136;-70
2021/12/17 10:26:16;;;;;;;6.20;4.38;;;8.30;99.90;;;;;;7381406;19;20159;-70
2021/12/17 10:29:21;;;;;;;7.50;5.88;;;8.20;99.90;;;;;;7384560;19;20226;-70
2021/12/17 10:31:56;;;;;;;6.60;5.70;;;8.20;99.90;;;;;;7378388;19;20500;-70
2021/12/17 10:34:24;;;;;;;8.60;5.50;;;8.30;99.90;;;;;;7377139;19;20149;-70
2021/12/17 10:36:53;;;;;;;7.35;5.72;;;8.30;99.90;;;;;;7380264;19;20620;-70
2021/12/17 10:39:22;;;;;;;7.30;5.85;;;8.30;99.90;;;;;;7384245;19;20128;-70
2021/12/17 10:41:50;;;;;;;8.60;6.40;;;8.20;99.90;;;;;;7378695;19;20151;-70
2021/12/17 10:44:20;;;;;;;6.40;5.30;;;8.30;99.90;;;;;;7378052;19;20228;-70
2021/12/17 10:47:09;;;;;;;7.75;5.55;;;8.30;99.90;;;;;;7378519;19;20152;-70
2021/12/17 10:49:50;;;;;;;5.88;5.28;;;8.20;99.90;;;;;;7382549;19;20135;-70
2021/12/17 10:52:18;;;;;;;7.68;5.80;;;8.10;99.90;;;;;;7379018;19;20413;-70
2021/12/17 10:55:08;;;;;;;6.38;5.55;;;8.20;99.90;;;;;;7380491;19;20159;-70
2021/12/17 10:57:39;;;;;;;9.00;6.72;;;8.30;99.90;;;;;;7383919;19;20142;-70
2021/12/17 11:00:09;;;;;;;10.27;7.38;;;8.30;99.90;;;;;;7381127;19;20139;-70
2021/12/17 11:02:37;;;;;;;10.15;7.75;;;8.30;99.90;;;;;;7378638;19;20149;-70
2021/12/17 11:05:14;;;;;;;12.07;7.57;;;8.50;99.90;;;;;;7375016;19;20186;-71
2021/12/17 11:07:45;;;;;;;8.98;7.43;;;9.80;99.90;;;;;;7382324;19;20799;-71
2021/12/17 11:10:12;;;;;;;8.53;7.00;;;12.30;99.90;;;;;;7382852;19;20165;-71
2021/12/17 11:12:46;;;;;;;7.83;7.00;;;;;;;;;;7382906;19;20450;-71
2021/12/17 11:15:13;;;;;;;6.60;6.00;;;;;;;;;;7382378;19;20392;-72
2021/12/17 11:17:40;;;;;;;7.43;6.70;;;;;;;;;;7382521;19;20388;-72
2021/12/17 11:20:28;;;;;;;7.60;5.70;;;;;;;;;;7380282;19;20966;-72
2021/12/17 11:23:05;;;;;;;7.50;6.60;;;;;;;;;;7381260;19;20356;-73
2021/12/17 11:25:32;;;;;;;7.57;6.03;;;;;;;;;;7382040;19;20380;-70
2021/12/17 11:28:01;;;;;;;6.53;5.93;;;;;;;;;;7384907;19;21016;-71
2021/12/17 11:30:32;;;;;;;8.20;7.50;;;;;;;;;;7379164;19;20429;-70
2021/12/17 11:33:04;;;;;;;6.67;6.07;;;14.40;98.00;;;;;;7376513;19;20384;-70
2021/12/17 11:35:31;;;;;;;8.00;7.27;;;;;;;;;;7379285;19;20935;-70
2021/12/17 11:38:26;;;;;;;8.93;7.60;;;14.40;82.20;;;;;;7376251;19;20886;-70
2021/12/17 11:41:28;;;;;;;7.80;6.80;;;12.70;90.30;;;;;;7376179;19;20396;-70
2021/12/17 11:43:59;;;;;;;8.87;7.13;;;11.90;92.70;;;;;;7379333;19;20528;-70
2021/12/17 11:46:32;;;;;;;8.57;7.37;;;11.40;94.40;;;;;;7379624;19;20381;-70
2021/12/17 11:49:07;;;;;;;7.83;6.50;;;11.00;96.10;;;;;;7379514;19;20368;-70
2021/12/17 11:51:38;;;;;;;9.83;7.60;;;10.80;97.10;;;;;;7377840;19;20955;-70
2021/12/17 11:54:16;;;;;;;9.40;6.87;;;10.70;97.10;;;;;;7373572;19;20438;-70
2021/12/17 11:56:47;;;;;;;9.07;7.40;;;10.50;97.70;;;;;;7378022;19;20411;-70
2021/12/17 11:59:27;;;;;;;8.67;7.73;;;10.80;98.00;;;;;;7377694;19;20143;-70
2021/12/17 12:02:02;;;;;;;7.30;6.60;;;10.50;97.70;;;;;;7379132;19;21033;-70
2021/12/17 12:04:36;;;;;;;13.00;9.00;;;10.10;98.60;;;;;;7379389;19;20427;-71
2021/12/17 12:07:09;;;;;;;9.73;6.60;;;9.70;99.90;;;;;;7381787;19;20455;-71
2021/12/17 12:09:57;;;;;;;23.92;10.80;;;9.60;99.90;;;;;;7377242;19;20424;-71
2021/12/17 12:12:26;;;;;;;9.13;7.45;;;9.30;99.90;;;;;;7374120;19;20152;-71
2021/12/17 12:14:54;;;;;;;9.07;6.10;;;9.30;99.90;;;;;;7378038;19;20135;-70
2021/12/17 12:17:57;;;;;;;7.53;6.30;;;9.20;99.90;;;;;;7378053;19;20742;-71
2021/12/17 12:20:44;;;;;;;9.30;6.93;;;9.00;99.90;;;;;;7379659;19;20208;-70
2021/12/17 12:23:28;;;;;;;9.00;6.88;;;9.10;99.90;;;;;;7378526;19;20618;-71
2021/12/17 12:26:05;;;;;;;6.78;5.80;;;9.00;99.90;;;;;;7359249;19;25975;-70
2021/12/17 12:28:56;;;;;;;9.15;7.20;;;9.00;99.90;;;;;;7378710;19;20144;-72
2021/12/17 12:31:26;;;;;;;9.50;6.63;;;9.00;99.90;;;;;;7390574;19;20136;-72
2021/12/17 12:34:05;;;;;;;9.63;6.47;;;9.00;99.90;;;;;;7391325;19;20303;-86
2021/12/17 12:36:58;;;;;;;8.35;6.38;;;9.00;99.90;;;;;;7387603;19;20319;-79
2021/12/17 12:39:54;;;;;;;7.80;6.00;;;9.10;99.90;;;;;;7389228;19;20159;-73
2021/12/17 12:42:32;;;;;;;7.97;5.88;;;8.90;99.90;;;;;;7390249;19;20132;-73
2021/12/17 12:45:03;;;;;;;7.88;5.70;;;8.90;99.90;;;;;;7381409;19;20204;-70
2021/12/17 12:47:39;;;;;;;7.15;5.95;;;8.90;99.90;;;;;;7383483;19;20115;-71
2021/12/17 12:50:12;;;;;;;8.43;6.80;;;8.90;99.90;;;;;;7395813;19;20134;-70
2021/12/17 12:53:01;;;;;;;8.45;6.85;;;8.90;99.90;;;;;;7390956;19;20136;-70
2021/12/17 12:55:34;;;;;;;8.75;5.57;;;8.90;99.90;;;;;;7378009;19;20351;-72
2021/12/17 12:58:08;;;;;;;8.30;6.45;;;8.90;99.90;;;;;;7394527;19;20542;-70
2021/12/17 13:00:45;;;;;;;8.98;6.43;;;9.00;99.90;;;;;;7388069;19;20138;-71
2021/12/17 13:03:20;;;;;;;7.85;6.45;;;9.00;99.90;;;;;;7380616;19;20178;-71
2021/12/17 13:05:47;;;;;;;8.75;6.57;;;9.00;99.90;;;;;;7376661;19;20120;-72
2021/12/17 13:08:17;;;;;;;8.75;6.05;;;9.00;99.90;;;;;;7388810;19;20347;-70
2021/12/17 13:11:17;;;;;;;7.22;6.25;;;9.10;99.90;;;;;;7385611;19;20141;-71
2021/12/17 13:13:51;;;;;;;8.23;7.15;;;9.10;99.90;;;;;;7390131;19;20135;-72
2021/12/17 13:21:46;;;;;;;8.50;6.68;;;9.00;99.90;;;;;;7387302;19;20140;-71
2021/12/17 13:24:21;;;;;;;8.77;5.75;;;9.10;99.90;;;;;;7394293;19;20195;-71
2021/12/17 13:26:53;;;;;;;8.75;6.30;;;9.10;99.90;;;;;;7400492;19;20207;-71
2021/12/17 13:29:33;;;;;;;8.73;6.80;;;9.10;99.90;;;;;;7394501;19;20135;-71
2021/12/17 13:32:09;;;;;;;10.02;6.93;;;9.30;99.90;;;;;;7391639;19;20131;-71
2021/12/17 13:34:48;;;;;;;10.48;6.80;;;9.40;99.90;;;;;;7390829;19;20128;-70
2021/12/17 13:37:16;;;;;;;10.07;6.10;;;9.50;99.90;;;;;;7398505;19;20138;-70
2021/12/17 13:40:00;;;;;;;10.20;6.72;;;9.60;99.90;;;;;;7406619;19;20136;-70
2021/12/17 13:42:35;;;;;;;9.93;6.38;;;9.50;99.90;;;;;;7397381;19;20189;-69
2021/12/17 13:45:13;;;;;;;9.60;7.30;;;9.40;99.90;;;;;;7397110;19;20720;-71
2021/12/17 13:47:48;;;;;;;9.15;6.82;;;9.40;99.90;;;;;;7404261;19;20135;-71
2021/12/17 13:50:21;;;;;;;8.65;6.35;;;9.40;99.90;;;;;;7401126;19;20148;-71
2021/12/17 13:52:58;;;;;;;7.78;6.40;;;9.40;99.90;;;;;;7404020;19;20153;-71
2021/12/17 13:55:37;;;;;;;10.10;7.32;;;9.30;99.90;;;;;;7396606;19;20179;-71
2021/12/17 13:58:14;;;;;;;8.30;6.68;;;9.30;99.90;;;;;;7405742;19;20140;-71
2021/12/17 14:00:44;;;;;;;8.80;6.45;;;9.20;99.90;;;;;;7403364;19;20127;-70
2021/12/17 14:03:13;;;;;;;7.28;6.53;;;9.10;99.90;;;;;;7400681;19;20128;-71
2021/12/17 14:06:01;;;;;;;9.38;6.20;;;9.10;99.90;;;;;;7401429;19;20128;-71
2021/12/17 14:08:28;;;;;;;9.50;6.47;;;9.10;99.90;;;;;;7397774;19;20199;-72
2021/12/17 14:10:59;;;;;;;9.55;7.20;;;9.20;99.90;;;;;;7405233;19;20327;-70
2021/12/17 14:13:29;;;;;;;9.82;6.63;;;9.30;99.90;;;;;;7407594;19;20146;-73
2021/12/17 14:16:00;;;;;;;8.82;7.53;;;9.40;99.90;;;;;;7405712;19;20151;-69
2021/12/17 14:18:33;;;;;;;8.90;6.40;;;9.40;99.90;;;;;;7400865;19;20192;-69
2021/12/17 14:21:05;;;;;;;8.82;6.75;;;9.50;99.90;;;;;;7400810;19;20127;-68
2021/12/17 14:23:39;;;;;;;9.13;6.75;;;9.60;99.90;;;;;;7398551;19;20128;-67
2021/12/17 14:26:11;;;;;;;9.43;7.00;;;9.50;99.90;;;;;;7401245;19;20227;-71
2021/12/17 14:28:40;;;;;;;8.82;6.35;;;9.50;99.90;;;;;;7402684;19;20507;-66
2021/12/17 14:31:17;;;;;;;7.60;6.15;;;9.50;99.90;;;;;;7403376;19;20120;-67
2021/12/17 14:33:57;;;;;;;9.90;5.85;;;9.60;99.90;;;;;;7402579;19;20226;-68
2021/12/17 14:36:30;;;;;;;9.05;7.00;;;9.50;99.90;;;;;;7401968;19;20120;-67
2021/12/17 14:39:09;;;;;;;7.72;6.70;;;9.50;99.90;;;;;;7401878;19;20135;-67
2021/12/17 14:42:08;;;;;;;8.52;6.82;;;9.40;99.90;;;;;;7397113;19;20159;-78
2021/12/17 14:44:50;;;;;;;9.05;6.38;;;9.40;99.90;;;;;;7396569;19;20128;-78
2021/12/17 14:47:31;;;;;;;11.27;7.72;;;9.30;99.90;;;;;;7396721;19;20136;-79
2021/12/17 15:06:04;;;;;;;11.57;8.52;;;8.90;99.90;;;;;;7391100;19;20115;-78
2021/12/17 15:08:33;;;;;;;10.05;7.88;;;8.90;99.90;;;;;;7386117;19;20148;-78
2021/12/17 15:11:08;;;;;;;11.20;8.35;;;8.90;99.90;;;;;;7391299;19;20387;-69
2021/12/17 15:13:39;;;;;;;10.98;8.45;;;8.90;99.90;;;;;;7394723;19;20143;-68
2021/12/17 15:16:08;;;;;;;9.65;8.10;;;8.80;99.90;;;;;;7398259;19;20249;-69
2021/12/17 15:18:34;;;;;;;14.25;10.35;;;8.70;99.90;;;;;;7401419;19;20139;-70
2021/12/17 15:21:06;;;;;;;10.95;7.35;;;8.60;99.90;;;;;;7402422;19;20166;-72
2021/12/17 15:23:37;;;;;;;13.70;9.10;;;8.70;99.90;;;;;;7396903;19;21071;-70
2021/12/17 15:26:08;;;;;;;12.32;8.95;;;8.70;99.90;;;;;;7385693;19;20130;-68
2021/12/17 15:28:35;;;;;;;15.05;10.02;;;8.80;99.90;;;;;;7373230;19;20414;-68
2021/12/17 15:31:06;;;;;;;11.48;8.75;;;8.80;99.90;;;;;;7378996;19;20138;-68
2021/12/17 15:33:37;;;;;;;10.75;8.30;;;8.70;99.90;;;;;;7381554;19;20143;-69
2021/12/17 15:36:07;;;;;;;10.68;8.77;;;8.80;99.90;;;;;;7381756;19;20547;-68
2021/12/17 15:38:36;;;;;;;14.55;9.23;;;8.80;99.90;;;;;;7378388;19;20164;-69
2021/12/17 15:41:02;;;;;;;12.07;8.70;;;8.70;99.90;;;;;;7379762;19;20131;-68
2021/12/17 15:43:31;;;;;;;13.20;9.02;;;8.60;99.90;;;;;;7379685;19;20434;-69
2021/12/17 15:46:02;;;;;;;12.57;8.95;;;8.60;99.90;;;;;;7373217;19;20128;-69
2021/12/17 15:48:28;;;;;;;12.48;9.45;;;8.70;99.90;;;;;;7374162;19;20214;-68
2021/12/17 15:51:00;;;;;;;11.60;8.85;;;8.60;99.90;;;;;;7382250;19;20536;-68
2021/12/17 15:53:26;;;;;;;14.25;10.55;;;8.60;99.90;;;;;;7378092;19;20145;-68
2021/12/17 15:56:00;;;;;;;12.07;9.90;;;8.70;99.90;;;;;;7376709;19;20172;-68
2021/12/17 15:58:27;;;;;;;11.88;9.90;;;8.70;99.90;;;;;;7381109;19;20149;-68
2021/12/17 16:00:53;;;;;;;10.40;9.30;;;8.60;99.90;;;;;;7382258;19;20513;-68
2021/12/17 16:03:32;;;;;;;13.57;9.93;;;8.60;99.90;;;;;;7381021;19;20135;-68
2021/12/17 16:06:05;;;;;;;11.80;9.40;;;8.60;99.90;;;;;;7380137;19;20132;-68
2021/12/17 16:08:35;;;;;;;11.07;8.45;;;8.60;99.90;;;;;;7377725;19;20147;-69
2021/12/17 16:21:40;;;;;;;12.07;9.00;;;8.50;99.90;;;;;;7382463;19;20504;-73
2021/12/17 16:24:06;;;;;;;24.40;13.80;;;8.50;99.90;;;;;;7378186;19;20207;-74
2021/12/17 16:26:33;;;;;;;10.88;9.48;;;8.30;99.90;;;;;;7380733;19;20538;-74
2021/12/17 16:29:05;;;;;;;20.52;12.00;;;8.20;99.90;;;;;;7380318;19;20127;-73
2021/12/17 16:31:34;;;;;;;16.63;10.70;;;8.20;99.90;;;;;;7379960;19;20483;-73
2021/12/17 16:34:05;;;;;;;16.60;10.70;;;8.20;99.90;;;;;;7381216;19;20697;-73
2021/12/17 16:36:33;;;;;;;16.05;10.80;;;8.30;99.90;;;;;;7382480;19;20216;-74
2021/12/17 16:39:00;;;;;;;10.80;9.68;;;8.20;99.90;;;;;;7379276;19;20146;-73
2021/12/17 16:41:26;;;;;;;18.73;12.20;;;8.00;99.90;;;;;;7379279;19;20140;-73